createdAt,value
2022-11-20T00:01:30.689Z,6.43
2022-11-20T00:03:32.461Z,6.68
2022-11-20T00:05:35.075Z,5.60
2022-11-20T00:07:36.733Z,5.53
2022-11-20T00:09:38.426Z,5.05
2022-11-20T00:11:40.057Z,4.97
2022-11-20T00:13:42.000Z,5.53
2022-11-20T00:15:43.743Z,4.95
2022-11-20T00:17:45.486Z,4.38
2022-11-20T00:19:47.152Z,4.22
2022-11-20T00:21:48.835Z,4.13
2022-11-20T00:23:54.851Z,4.95
2022-11-20T00:25:57.008Z,4.38
2022-11-20T00:27:58.670Z,3.97
2022-11-20T00:30:00.396Z,4.18
2022-11-20T00:32:02.038Z,4.10
2022-11-20T00:34:03.774Z,4.78
2022-11-20T00:36:08.523Z,4.85
2022-11-20T00:38:10.365Z,4.25
2022-11-20T00:40:12.608Z,3.80
2022-11-20T00:42:14.377Z,4.43
2022-11-20T00:44:15.998Z,4.07
2022-11-20T00:46:20.315Z,4.45
2022-11-20T00:48:21.955Z,3.65
2022-11-20T00:50:23.679Z,3.95
2022-11-20T00:52:35.525Z,4.22
2022-11-20T00:54:37.167Z,3.88
2022-11-20T00:56:38.922Z,3.67
2022-11-20T00:58:42.694Z,4.97
2022-11-20T01:00:44.384Z,4.47
2022-11-20T01:02:46.065Z,4.57
2022-11-20T01:04:47.734Z,3.88
2022-11-20T01:06:49.485Z,3.60
2022-11-20T01:08:55.555Z,4.10
2022-11-20T01:11:11.638Z,3.70
2022-11-20T01:13:31.572Z,4.00
2022-11-20T01:15:35.166Z,4.00
2022-11-20T01:17:36.819Z,4.38
2022-11-20T01:19:38.611Z,3.40
2022-11-20T01:21:42.633Z,3.75
2022-11-20T01:23:45.669Z,4.30
2022-11-20T01:25:47.337Z,3.58
2022-11-20T01:27:49.060Z,3.38
2022-11-20T01:29:50.767Z,3.42
2022-11-20T01:31:53.652Z,3.20
2022-11-20T01:33:57.988Z,3.53
2022-11-20T01:36:06.966Z,3.00
2022-11-20T01:38:08.565Z,3.22
2022-11-20T01:40:10.978Z,4.07
2022-11-20T01:42:32.520Z,2.63
2022-11-20T01:44:46.166Z,2.75
2022-11-20T01:47:01.737Z,2.58
2022-11-20T01:49:32.835Z,3.58
2022-11-20T01:51:42.878Z,3.40
2022-11-20T01:53:45.283Z,2.73
2022-11-20T01:55:52.587Z,2.65
2022-11-20T01:57:54.414Z,2.45
2022-11-20T02:00:11.843Z,2.60
2022-11-20T02:02:13.515Z,2.38
2022-11-20T02:04:16.525Z,2.42
2022-11-20T02:06:26.857Z,2.38
2022-11-20T02:08:29.278Z,2.45
2022-11-20T02:10:31.418Z,2.55
2022-11-20T02:12:52.578Z,3.05
2022-11-20T02:14:54.242Z,2.40
2022-11-20T02:16:56.832Z,2.80
2022-11-20T02:19:01.377Z,3.75
2022-11-20T02:21:14.243Z,3.35
2022-11-20T02:23:40.901Z,2.65
2022-11-20T02:25:44.687Z,2.97
2022-11-20T02:27:46.377Z,2.65
2022-11-20T02:30:09.077Z,2.25
2022-11-20T02:32:23.593Z,2.17
2022-11-20T02:34:25.256Z,2.35
2022-11-20T02:36:29.196Z,2.28
2022-11-20T02:38:30.803Z,2.03
2022-11-20T02:40:32.452Z,2.03
2022-11-20T02:42:34.068Z,2.22
2022-11-20T02:44:35.732Z,1.60
2022-11-20T02:46:37.438Z,1.50
2022-11-20T02:48:39.116Z,1.85
2022-11-20T02:50:41.533Z,1.92
2022-11-20T02:52:51.996Z,1.55
2022-11-20T02:54:53.868Z,2.13
2022-11-20T02:56:55.601Z,2.10
2022-11-20T02:58:57.368Z,1.75
2022-11-20T03:00:59.069Z,1.75
2022-11-20T03:03:00.784Z,1.27
2022-11-20T03:05:02.455Z,1.15
2022-11-20T03:07:04.836Z,1.40
2022-11-20T03:09:06.753Z,1.23
2022-11-20T03:11:09.041Z,1.20
2022-11-20T03:13:10.765Z,1.60
2022-11-20T03:15:12.480Z,1.10
2022-11-20T03:17:14.127Z,1.38
2022-11-20T03:19:15.823Z,1.17
2022-11-20T03:21:17.589Z,1.40
2022-11-20T03:23:19.436Z,1.50
2022-11-20T03:25:21.158Z,1.52
2022-11-20T03:27:22.937Z,1.25
2022-11-20T03:29:24.660Z,1.48
2022-11-20T03:31:32.363Z,1.00
2022-11-20T03:33:34.075Z,1.20
2022-11-20T03:35:35.790Z,0.73
2022-11-20T03:37:37.470Z,0.80
2022-11-20T03:39:39.136Z,1.08
2022-11-20T03:41:43.144Z,1.00
2022-11-20T03:43:55.378Z,0.70
2022-11-20T03:45:57.827Z,0.77
2022-11-20T03:47:59.521Z,0.90
2022-11-20T03:50:01.174Z,1.52
2022-11-20T03:52:02.881Z,1.08
2022-11-20T03:54:07.648Z,0.90
2022-11-20T03:56:10.558Z,0.88
2022-11-20T03:58:12.325Z,0.93
2022-11-20T04:00:14.655Z,0.80
2022-11-20T04:02:16.339Z,0.90
2022-11-20T04:04:18.240Z,1.13
2022-11-20T04:06:28.894Z,0.82
2022-11-20T04:08:31.635Z,1.00
2022-11-20T04:10:33.283Z,1.13
2022-11-20T04:12:35.051Z,0.88
2022-11-20T04:14:37.162Z,1.05
2022-11-20T04:16:39.182Z,0.90
2022-11-20T04:18:40.822Z,1.27
2022-11-20T04:20:42.539Z,1.40
2022-11-20T04:22:54.079Z,1.23
2022-11-20T04:24:55.754Z,1.27
2022-11-20T04:26:57.477Z,1.55
2022-11-20T04:28:59.878Z,1.50
2022-11-20T04:31:06.900Z,1.45
2022-11-20T04:33:08.828Z,1.75
2022-11-20T04:35:10.493Z,1.55
2022-11-20T04:37:12.131Z,1.95
2022-11-20T04:39:16.419Z,1.95
2022-11-20T04:41:20.412Z,1.40
2022-11-20T04:43:22.023Z,2.15
2022-11-20T04:45:24.167Z,1.52
2022-11-20T04:47:25.887Z,1.58
2022-11-20T04:49:27.680Z,1.20
2022-11-20T04:51:29.656Z,1.38
2022-11-20T04:53:31.600Z,1.20
2022-11-20T04:55:33.269Z,1.15
2022-11-20T04:57:35.141Z,1.20
2022-11-20T04:59:36.796Z,1.17
2022-11-20T05:01:38.554Z,1.58
2022-11-20T05:03:42.742Z,1.27
2022-11-20T05:05:44.655Z,1.02
2022-11-20T05:07:46.341Z,0.85
2022-11-20T05:09:47.965Z,1.50
2022-11-20T05:11:51.628Z,1.90
2022-11-20T05:13:53.517Z,1.83
2022-11-20T05:15:55.496Z,1.92
2022-11-20T05:17:57.152Z,1.42
2022-11-20T05:19:58.873Z,1.13
2022-11-20T05:22:00.524Z,2.10
2022-11-20T05:24:02.194Z,1.00
2022-11-20T05:26:04.781Z,1.30
2022-11-20T05:28:06.483Z,1.23
2022-11-20T05:30:08.869Z,0.80
2022-11-20T05:32:10.838Z,0.82
2022-11-20T05:34:12.441Z,1.20
2022-11-20T05:36:15.809Z,1.73
2022-11-20T05:38:17.493Z,2.35
2022-11-20T05:40:19.272Z,1.35
2022-11-20T05:42:39.216Z,1.38
2022-11-20T05:44:41.022Z,1.00
2022-11-20T05:46:42.684Z,1.23
2022-11-20T05:48:45.461Z,1.05
2022-11-20T05:50:47.202Z,1.40
2022-11-20T05:52:52.140Z,1.33
2022-11-20T05:54:53.761Z,1.08
2022-11-20T05:56:55.376Z,1.17
2022-11-20T05:58:57.457Z,1.40
2022-11-20T06:01:26.410Z,1.17
2022-11-20T06:03:28.036Z,1.08
2022-11-20T06:05:29.690Z,0.90
2022-11-20T06:07:31.389Z,1.20
2022-11-20T06:09:33.247Z,1.25
2022-11-20T06:11:35.022Z,1.25
2022-11-20T06:13:41.806Z,1.67
2022-11-20T06:15:58.212Z,1.13
2022-11-20T06:18:00.097Z,0.82
2022-11-20T06:20:02.012Z,1.30
2022-11-20T06:22:03.677Z,1.05
2022-11-20T06:24:05.733Z,1.92
2022-11-20T06:26:09.889Z,1.40
2022-11-20T06:28:11.614Z,1.50
2022-11-20T06:30:13.688Z,0.93
2022-11-20T06:32:15.335Z,1.17
2022-11-20T06:34:17.150Z,1.27
2022-11-20T06:36:21.211Z,1.15
2022-11-20T06:38:23.157Z,1.77
2022-11-20T06:40:24.792Z,1.27
2022-11-20T06:42:26.458Z,1.23
2022-11-20T06:44:28.147Z,0.70
2022-11-20T06:46:29.808Z,0.98
2022-11-20T06:48:31.504Z,1.05
2022-11-20T06:50:33.306Z,1.33
2022-11-20T06:52:38.286Z,0.80
2022-11-20T06:54:42.479Z,1.08
2022-11-20T06:56:48.839Z,1.10
2022-11-20T06:58:50.512Z,1.33
2022-11-20T07:00:52.206Z,1.70
2022-11-20T07:02:55.265Z,0.93
2022-11-20T07:04:56.910Z,1.33
2022-11-20T07:06:58.567Z,1.15
2022-11-20T07:09:00.294Z,1.83
2022-11-20T07:11:04.701Z,2.30
2022-11-20T07:13:07.975Z,1.38
2022-11-20T07:15:09.765Z,1.27
2022-11-20T07:17:11.399Z,1.17
2022-11-20T07:19:13.101Z,1.02
2022-11-20T07:21:14.983Z,1.33
2022-11-20T07:23:16.722Z,1.05
2022-11-20T07:25:18.411Z,1.08
2022-11-20T07:27:20.029Z,0.90
2022-11-20T07:29:21.910Z,1.42
2022-11-20T07:31:23.850Z,1.00
2022-11-20T07:33:25.645Z,1.10
2022-11-20T07:35:27.272Z,0.98
2022-11-20T07:37:28.931Z,1.15
2022-11-20T07:39:30.552Z,1.23
2022-11-20T07:41:32.404Z,2.35
2022-11-20T07:43:38.495Z,1.80
2022-11-20T07:45:42.609Z,1.80
2022-11-20T07:47:44.292Z,2.40
2022-11-20T07:49:46.040Z,2.13
2022-11-20T07:51:51.771Z,1.70
2022-11-20T07:53:54.158Z,2.35
2022-11-20T07:55:55.766Z,1.92
2022-11-20T07:57:58.728Z,1.83
2022-11-20T08:00:00.404Z,1.90
2022-11-20T08:02:02.176Z,2.13
2022-11-20T08:04:04.192Z,2.60
2022-11-20T08:06:06.504Z,2.65
2022-11-20T08:08:08.811Z,2.90
2022-11-20T08:10:13.699Z,3.22
2022-11-20T08:12:41.081Z,2.53
2022-11-20T08:14:42.743Z,3.00
2022-11-20T08:16:49.167Z,3.45
2022-11-20T08:18:50.840Z,4.35
2022-11-20T08:20:52.551Z,3.83
2022-11-20T08:22:58.213Z,3.10
2022-11-20T08:25:00.067Z,3.40
2022-11-20T08:27:01.740Z,2.97
2022-11-20T08:29:04.562Z,3.22
2022-11-20T08:31:06.372Z,2.65
2022-11-20T08:33:10.128Z,2.88
2022-11-20T08:35:11.829Z,3.10
2022-11-20T08:37:13.461Z,2.90
2022-11-20T08:39:15.708Z,2.80
2022-11-20T08:41:31.793Z,3.00
2022-11-20T08:43:33.476Z,3.47
2022-11-20T08:45:35.631Z,2.80
2022-11-20T08:47:37.494Z,2.78
2022-11-20T08:49:39.222Z,2.30
2022-11-20T08:51:41.840Z,2.63
2022-11-20T08:53:43.753Z,2.35
2022-11-20T08:55:45.414Z,2.30
2022-11-20T08:57:50.858Z,2.40
2022-11-20T09:00:09.071Z,2.17
2022-11-20T09:02:10.951Z,2.30
2022-11-20T09:04:14.633Z,2.30
2022-11-20T09:06:17.271Z,2.33
2022-11-20T09:08:18.941Z,2.47
2022-11-20T09:10:24.935Z,2.25
2022-11-20T09:12:26.925Z,2.30
2022-11-20T09:14:30.330Z,2.03
2022-11-20T09:16:32.001Z,2.17
2022-11-20T09:18:36.995Z,2.25
2022-11-20T09:20:38.905Z,2.65
2022-11-20T09:22:41.718Z,2.00
2022-11-20T09:24:43.880Z,2.25
2022-11-20T09:26:45.885Z,2.35
2022-11-20T09:28:47.755Z,2.50
2022-11-20T09:30:49.412Z,3.60
2022-11-20T09:33:00.733Z,3.78
2022-11-20T09:35:03.076Z,3.63
2022-11-20T09:37:14.829Z,3.72
2022-11-20T09:39:26.115Z,3.83
2022-11-20T09:41:41.217Z,2.83
2022-11-20T09:44:08.016Z,2.95
2022-11-20T09:46:30.792Z,3.03
2022-11-20T09:49:04.654Z,2.97
2022-11-20T09:51:36.969Z,2.10
2022-11-20T09:53:56.957Z,2.13
2022-11-20T09:56:02.470Z,1.60
2022-11-20T09:58:39.360Z,2.13
2022-11-20T10:00:45.911Z,1.50
2022-11-20T10:03:14.683Z,2.40
2022-11-20T10:05:21.672Z,1.75
2022-11-20T10:07:32.653Z,1.63
2022-11-20T10:09:44.121Z,1.83
2022-11-20T10:12:06.579Z,1.95
2022-11-20T10:14:10.914Z,3.13
2022-11-20T10:16:28.065Z,1.75
2022-11-20T10:18:38.522Z,4.88
2022-11-20T10:20:50.249Z,2.40
2022-11-20T10:23:13.046Z,1.98
2022-11-20T10:25:42.166Z,2.50
2022-11-20T10:28:10.795Z,3.00
2022-11-20T10:30:15.899Z,2.28
2022-11-20T10:32:21.404Z,1.42
2022-11-20T10:34:35.582Z,2.17
2022-11-20T10:36:47.260Z,1.63
2022-11-20T10:38:58.102Z,2.35
2022-11-20T10:43:37.168Z,2.25
2022-11-20T10:45:48.764Z,2.28
2022-11-20T10:47:51.133Z,1.52
2022-11-20T10:49:56.454Z,1.95
2022-11-20T10:52:11.384Z,2.05
2022-11-20T10:54:28.530Z,1.80
2022-11-20T10:56:48.373Z,1.85
2022-11-20T10:59:24.567Z,2.08
2022-11-20T11:01:28.207Z,2.13
2022-11-20T11:03:32.314Z,2.10
2022-11-20T11:05:42.831Z,1.63
2022-11-20T11:07:46.361Z,2.20
2022-11-20T11:09:52.986Z,2.15
2022-11-20T11:11:54.608Z,2.13
2022-11-20T11:14:16.762Z,2.10
2022-11-20T11:16:28.447Z,1.52
2022-11-20T11:18:33.740Z,1.63
2022-11-20T11:20:35.483Z,2.33
2022-11-20T11:23:02.059Z,2.03
2022-11-20T11:25:03.939Z,1.52
2022-11-20T11:27:16.874Z,1.50
2022-11-20T11:29:19.608Z,1.88
2022-11-20T11:31:29.444Z,2.05
2022-11-20T11:33:34.769Z,1.45
2022-11-20T11:35:49.708Z,1.63
2022-11-20T11:37:55.260Z,2.03
2022-11-20T11:40:22.964Z,2.50
2022-11-20T11:42:20.683Z,1.95
2022-11-20T11:44:54.324Z,1.90
2022-11-20T11:46:59.354Z,2.42
2022-11-20T11:49:23.007Z,1.70
2022-11-20T11:51:30.938Z,2.15
2022-11-20T11:53:34.913Z,1.55
2022-11-20T11:55:43.503Z,1.60
2022-11-20T11:58:01.537Z,2.05
2022-11-20T12:00:22.767Z,1.73
2022-11-20T12:02:33.945Z,1.67
2022-11-20T12:04:52.884Z,1.90
2022-11-20T12:07:45.066Z,2.42
2022-11-20T12:09:47.418Z,2.03
2022-11-20T12:12:08.153Z,1.73
2022-11-20T12:14:25.216Z,1.42
2022-11-20T12:16:27.432Z,1.98
2022-11-20T12:18:30.653Z,2.25
2022-11-20T12:20:42.869Z,1.90
2022-11-20T12:23:26.737Z,1.83
2022-11-20T12:25:37.752Z,3.28
2022-11-20T12:28:14.369Z,1.77
2022-11-20T12:30:17.839Z,1.65
2022-11-20T12:32:59.980Z,2.25
2022-11-20T12:35:39.144Z,1.67
2022-11-20T12:37:40.776Z,2.55
2022-11-20T12:39:43.604Z,1.83
2022-11-20T12:42:09.962Z,2.33
2022-11-20T12:44:48.333Z,1.75
2022-11-20T12:47:05.039Z,1.48
2022-11-20T12:49:19.182Z,1.42
2022-11-20T12:51:49.165Z,2.08
2022-11-20T12:54:07.917Z,2.17
2022-11-20T12:56:29.924Z,2.38
2022-11-20T12:58:57.738Z,1.50
2022-11-20T13:01:40.851Z,1.58
2022-11-20T13:03:52.893Z,1.95
2022-11-20T13:05:58.035Z,1.75
2022-11-20T13:08:02.367Z,2.05
2022-11-20T13:10:12.739Z,2.08
2022-11-20T13:14:38.542Z,1.70
2022-11-20T13:17:06.266Z,1.83
2022-11-20T13:19:14.729Z,1.60
2022-11-20T13:21:23.656Z,2.25
2022-11-20T13:23:29.209Z,1.73
2022-11-20T13:25:35.993Z,1.88
2022-11-20T13:27:48.517Z,2.80
2022-11-20T13:30:15.533Z,1.95
2022-11-20T13:32:19.939Z,2.15
2022-11-20T13:34:27.128Z,1.40
2022-11-20T13:36:31.284Z,1.52
2022-11-20T13:38:46.278Z,1.75
2022-11-20T13:40:57.275Z,1.70
2022-11-20T13:43:29.340Z,1.48
2022-11-20T13:45:33.155Z,1.75
2022-11-20T13:47:37.013Z,1.30
2022-11-20T13:49:45.147Z,1.85
2022-11-20T13:51:53.030Z,2.05
2022-11-20T13:54:18.887Z,1.98
2022-11-20T13:56:35.428Z,2.55
2022-11-20T13:59:05.153Z,1.85
2022-11-20T14:01:10.052Z,2.20
2022-11-20T14:03:43.984Z,1.90
2022-11-20T14:06:00.015Z,2.03
2022-11-20T14:08:05.189Z,1.92
2022-11-20T14:10:07.333Z,2.55
2022-11-20T14:12:20.924Z,1.73
2022-11-20T14:14:30.673Z,1.75
2022-11-20T14:16:38.098Z,2.80
2022-11-20T14:18:39.797Z,1.92
2022-11-20T14:20:43.322Z,2.33
2022-11-20T14:22:58.015Z,1.23
2022-11-20T14:25:28.379Z,1.90
2022-11-20T14:27:30.673Z,2.08
2022-11-20T14:29:39.854Z,1.83
2022-11-20T14:31:43.191Z,1.77
2022-11-20T14:33:44.853Z,2.15
2022-11-20T14:35:51.959Z,2.95
2022-11-20T14:37:54.917Z,1.70
2022-11-20T14:39:59.839Z,1.85
2022-11-20T14:42:01.756Z,2.28
2022-11-20T14:44:05.278Z,2.45
2022-11-20T14:46:10.933Z,2.03
2022-11-20T14:48:12.907Z,1.90
2022-11-20T14:50:25.309Z,1.75
2022-11-20T14:52:28.588Z,1.33
2022-11-20T14:54:31.772Z,2.70
2022-11-20T14:56:33.451Z,1.85
2022-11-20T14:58:35.423Z,1.40
2022-11-20T15:00:38.166Z,1.75
2022-11-20T15:02:52.619Z,1.95
2022-11-20T15:05:04.325Z,2.60
2022-11-20T15:07:06.113Z,1.73
2022-11-20T15:09:16.033Z,1.90
2022-11-20T15:11:21.751Z,1.53
2022-11-20T15:13:40.073Z,2.35
2022-11-20T15:15:46.678Z,2.20
2022-11-20T15:17:48.530Z,2.65
2022-11-20T15:19:50.434Z,2.40
2022-11-20T15:21:52.528Z,1.92
2022-11-20T15:23:54.765Z,2.10
2022-11-20T15:25:57.020Z,1.80
2022-11-20T15:27:58.672Z,2.35
2022-11-20T15:30:00.428Z,2.10
2022-11-20T15:32:02.219Z,2.05
2022-11-20T15:34:04.033Z,2.67
2022-11-20T15:36:05.900Z,1.92
2022-11-20T15:38:07.721Z,2.35
2022-11-20T15:40:10.235Z,2.30
2022-11-20T15:42:11.888Z,2.17
2022-11-20T15:44:13.850Z,2.88
2022-11-20T15:46:18.271Z,2.63
2022-11-20T15:48:28.527Z,2.60
2022-11-20T15:50:40.217Z,3.30
2022-11-20T15:52:51.757Z,3.25
2022-11-20T15:54:53.500Z,2.88
2022-11-20T15:56:55.554Z,3.33
2022-11-20T15:58:57.230Z,3.25
2022-11-20T16:00:58.992Z,3.45
2022-11-20T16:03:00.742Z,4.07
2022-11-20T16:05:02.389Z,2.35
2022-11-20T16:07:04.187Z,2.33
2022-11-20T16:09:05.951Z,1.10
2022-11-20T16:11:07.628Z,1.67
2022-11-20T16:13:36.438Z,1.50
2022-11-20T16:15:47.486Z,1.40
2022-11-20T16:17:49.244Z,1.30
2022-11-20T16:19:50.927Z,1.45
2022-11-20T16:21:52.628Z,1.58
2022-11-20T16:23:54.889Z,1.55
2022-11-20T16:25:56.615Z,1.40
2022-11-20T16:27:58.339Z,1.88
2022-11-20T16:30:00.052Z,1.42
2022-11-20T16:32:01.712Z,1.45
2022-11-20T16:34:11.812Z,2.15
2022-11-20T16:36:16.123Z,1.23
2022-11-20T16:38:17.846Z,1.30
2022-11-20T16:40:19.517Z,1.38
2022-11-20T16:42:21.262Z,1.52
2022-11-20T16:44:23.299Z,1.63
2022-11-20T16:46:27.379Z,1.80
2022-11-20T16:48:29.027Z,1.65
2022-11-20T16:50:30.802Z,1.35
2022-11-20T16:52:32.676Z,1.42
2022-11-20T16:54:34.393Z,1.08
2022-11-20T16:56:36.827Z,1.17
2022-11-20T16:58:38.499Z,1.52
2022-11-20T17:00:41.039Z,2.25
2022-11-20T17:02:42.678Z,1.02
2022-11-20T17:04:44.353Z,1.40
2022-11-20T17:06:46.113Z,1.48
2022-11-20T17:08:48.705Z,1.20
2022-11-20T17:10:50.436Z,1.65
2022-11-20T17:12:52.422Z,1.38
2022-11-20T17:14:54.027Z,1.50
2022-11-20T17:16:55.677Z,1.10
2022-11-20T17:19:03.018Z,1.83
2022-11-20T17:21:06.013Z,0.90
2022-11-20T17:23:07.668Z,1.35
2022-11-20T17:25:09.467Z,1.25
2022-11-20T17:27:11.209Z,1.38
2022-11-20T17:29:18.174Z,1.10
2022-11-20T17:31:19.868Z,0.90
2022-11-20T17:33:21.579Z,0.75
2022-11-20T17:35:23.224Z,0.85
2022-11-20T17:37:24.927Z,0.90
2022-11-20T17:39:26.677Z,1.30
2022-11-20T17:41:30.076Z,1.00
2022-11-20T17:43:35.721Z,1.58
2022-11-20T17:45:37.930Z,1.63
2022-11-20T17:47:39.650Z,1.92
2022-11-20T17:49:41.266Z,1.30
2022-11-20T17:51:42.934Z,1.63
2022-11-20T17:53:46.588Z,1.05
2022-11-20T17:56:16.524Z,1.50
2022-11-20T17:58:18.971Z,1.23
2022-11-20T18:00:21.274Z,0.93
2022-11-20T18:02:23.439Z,1.35
2022-11-20T18:04:25.503Z,1.10
2022-11-20T18:06:29.095Z,1.30
2022-11-20T18:08:30.723Z,1.50
2022-11-20T18:10:32.552Z,1.55
2022-11-20T18:12:34.351Z,1.05
2022-11-20T18:14:36.682Z,1.02
2022-11-20T18:16:46.083Z,1.02
2022-11-20T18:18:47.796Z,1.50
2022-11-20T18:20:54.322Z,1.10
2022-11-20T18:22:55.916Z,1.65
2022-11-20T18:24:57.581Z,1.58
2022-11-20T18:26:59.650Z,1.45
2022-11-20T18:29:07.166Z,1.10
2022-11-20T18:31:09.847Z,1.30
2022-11-20T18:33:11.536Z,1.35
2022-11-20T18:35:13.175Z,0.88
2022-11-20T18:37:16.587Z,1.48
2022-11-20T18:39:18.492Z,1.48
2022-11-20T18:41:40.715Z,1.77
2022-11-20T18:44:08.320Z,1.60
2022-11-20T18:46:10.517Z,1.98
2022-11-20T18:48:12.399Z,1.30
2022-11-20T18:50:14.177Z,1.40
2022-11-20T18:52:15.881Z,1.75
2022-11-20T18:54:17.510Z,1.38
2022-11-20T18:56:19.140Z,1.77
2022-11-20T18:58:20.815Z,1.25
2022-11-20T19:00:23.178Z,1.77
2022-11-20T19:02:27.267Z,1.25
2022-11-20T19:04:30.475Z,1.40
2022-11-20T19:06:32.316Z,1.95
2022-11-20T19:08:37.043Z,1.77
2022-11-20T19:10:38.763Z,2.42
2022-11-20T19:12:42.885Z,2.00
2022-11-20T19:14:44.857Z,2.10
2022-11-20T19:16:46.708Z,2.03
2022-11-20T19:18:49.411Z,2.00
2022-11-20T19:20:51.121Z,2.50
2022-11-20T19:22:54.766Z,2.08
2022-11-20T19:24:56.564Z,2.13
2022-11-20T19:26:58.321Z,1.77
2022-11-20T19:29:00.030Z,2.08
2022-11-20T19:31:07.252Z,2.15
2022-11-20T19:33:09.028Z,2.53
2022-11-20T19:35:10.746Z,2.60
2022-11-20T19:37:12.485Z,2.58
2022-11-20T19:39:14.369Z,2.65
2022-11-20T19:41:18.582Z,2.33
2022-11-20T19:43:20.567Z,2.72
2022-11-20T19:45:22.271Z,1.77
2022-11-20T19:47:35.404Z,2.28
2022-11-20T19:49:46.452Z,2.25
2022-11-20T19:51:49.290Z,1.95
2022-11-20T19:53:51.800Z,2.55
2022-11-20T19:56:00.449Z,1.98
2022-11-20T19:58:03.327Z,1.73
2022-11-20T20:00:05.465Z,2.33
2022-11-20T20:02:07.179Z,2.10
2022-11-20T20:04:09.076Z,1.92
2022-11-20T20:06:16.381Z,2.33
2022-11-20T20:08:18.002Z,2.25
2022-11-20T20:10:20.460Z,2.03
2022-11-20T20:12:22.085Z,2.30
2022-11-20T20:14:23.765Z,2.38
2022-11-20T20:16:26.546Z,2.83
2022-11-20T20:18:28.230Z,1.95
2022-11-20T20:20:29.954Z,2.20
2022-11-20T20:22:31.579Z,2.28
2022-11-20T20:24:33.242Z,1.88
2022-11-20T20:26:34.828Z,2.08
2022-11-20T20:28:37.427Z,2.38
2022-11-20T20:30:39.143Z,1.35
2022-11-20T20:32:55.846Z,1.70
2022-11-20T20:34:58.004Z,1.70
2022-11-20T20:36:59.688Z,1.10
2022-11-20T20:39:02.906Z,1.48
2022-11-20T20:41:05.265Z,1.70
2022-11-20T20:43:06.937Z,1.60
2022-11-20T20:45:11.033Z,1.15
2022-11-20T20:47:12.705Z,1.30
2022-11-20T20:49:14.305Z,1.98
2022-11-20T20:51:16.252Z,1.33
2022-11-20T20:53:17.891Z,1.40
2022-11-20T20:55:19.538Z,1.48
2022-11-20T20:57:24.563Z,1.38
2022-11-20T20:59:26.365Z,1.58
2022-11-20T21:01:29.034Z,1.15
2022-11-20T21:03:35.858Z,1.42
2022-11-20T21:05:37.552Z,1.48
2022-11-20T21:07:59.129Z,1.13
2022-11-20T21:10:00.799Z,2.08
2022-11-20T21:12:02.424Z,1.90
2022-11-20T21:14:04.189Z,1.35
2022-11-20T21:16:08.638Z,2.33
2022-11-20T21:18:10.617Z,1.90
2022-11-20T21:20:31.206Z,2.00
2022-11-20T21:22:36.440Z,1.60
2022-11-20T21:24:38.485Z,1.27
2022-11-20T21:26:48.568Z,1.30
2022-11-20T21:28:50.439Z,1.10
2022-11-20T21:30:52.192Z,2.00
2022-11-20T21:33:00.257Z,1.20
2022-11-20T21:35:02.061Z,1.27
2022-11-20T21:37:03.683Z,1.33
2022-11-20T21:39:05.771Z,1.40
2022-11-20T21:41:33.867Z,1.35
2022-11-20T21:44:23.591Z,1.40
2022-11-20T21:46:35.525Z,1.50
2022-11-20T21:49:00.351Z,1.45
2022-11-20T21:51:10.331Z,1.60
2022-11-20T21:53:33.819Z,1.40
2022-11-20T21:55:35.552Z,2.25
2022-11-20T21:57:37.304Z,1.92
2022-11-20T21:59:38.936Z,1.55
2022-11-20T22:01:41.560Z,1.67
2022-11-20T22:03:47.045Z,1.80
2022-11-20T22:05:56.624Z,1.27
2022-11-20T22:07:58.282Z,2.33
2022-11-20T22:09:59.910Z,1.85
2022-11-20T22:12:01.500Z,1.35
2022-11-20T22:14:22.133Z,2.05
2022-11-20T22:16:24.659Z,1.70
2022-11-20T22:18:26.428Z,2.17
2022-11-20T22:20:28.100Z,2.25
2022-11-20T22:22:29.694Z,2.17
2022-11-20T22:24:32.092Z,2.13
2022-11-20T22:26:40.023Z,2.42
2022-11-20T22:28:42.812Z,2.35
2022-11-20T22:30:44.433Z,2.13
2022-11-20T22:32:56.523Z,1.65
2022-11-20T22:34:58.130Z,2.60
2022-11-20T22:36:59.765Z,2.05
2022-11-20T22:39:02.750Z,1.92
2022-11-20T22:41:06.099Z,2.13
2022-11-20T22:43:07.772Z,2.50
2022-11-20T22:45:09.948Z,2.50
2022-11-20T22:47:11.724Z,2.03
2022-11-20T22:49:13.416Z,2.38
2022-11-20T22:51:16.958Z,1.90
2022-11-20T22:53:18.635Z,1.77
2022-11-20T22:55:20.315Z,1.83
2022-11-20T22:57:21.930Z,2.10
2022-11-20T22:59:23.558Z,2.25
2022-11-20T23:01:28.061Z,2.20
2022-11-20T23:03:29.729Z,1.90
2022-11-20T23:05:32.614Z,1.75
2022-11-20T23:07:39.686Z,1.98
2022-11-20T23:09:42.518Z,2.38
2022-11-20T23:11:44.169Z,1.95
2022-11-20T23:13:46.934Z,2.17
2022-11-20T23:15:48.631Z,1.95
2022-11-20T23:17:50.303Z,1.60
2022-11-20T23:19:54.894Z,2.00
2022-11-20T23:21:56.524Z,2.05
2022-11-20T23:23:58.960Z,2.15
2022-11-20T23:26:02.640Z,2.60
2022-11-20T23:28:04.488Z,2.55
2022-11-20T23:30:06.732Z,1.67
2022-11-20T23:32:08.413Z,1.90
2022-11-20T23:34:10.653Z,2.08
2022-11-20T23:36:12.929Z,1.98
2022-11-20T23:38:14.565Z,2.17
2022-11-20T23:40:16.299Z,1.80
2022-11-20T23:42:17.999Z,1.85
2022-11-20T23:44:19.664Z,2.05
2022-11-20T23:46:21.384Z,2.35
2022-11-20T23:48:26.254Z,2.10
2022-11-20T23:50:27.910Z,1.50
2022-11-20T23:52:29.522Z,2.10
2022-11-20T23:54:31.230Z,2.30
2022-11-20T23:56:35.945Z,2.00
2022-11-20T23:58:38.883Z,1.70
